createdAt,value
2018-06-03T00:01:21.843Z,67.41
2018-06-03T00:03:50.130Z,67.71
2018-06-03T00:06:18.703Z,67.70
2018-06-03T00:08:47.770Z,69.04
2018-06-03T00:11:16.352Z,69.06
2018-06-03T00:13:45.555Z,69.91
2018-06-03T00:16:13.732Z,69.64
2018-06-03T00:18:41.970Z,70.10
2018-06-03T00:21:53.768Z,70.36
2018-06-03T00:24:21.951Z,70.35
2018-06-03T00:26:50.693Z,70.56
2018-06-03T00:29:21.248Z,71.18
2018-06-03T00:31:51.191Z,71.35
2018-06-03T00:34:19.913Z,71.38
2018-06-03T00:36:49.118Z,71.68
2018-06-03T00:39:17.323Z,71.81
2018-06-03T00:41:45.615Z,72.06
2018-06-03T00:44:13.851Z,72.03
2018-06-03T00:46:42.507Z,71.64
2018-06-03T00:49:10.720Z,71.39
2018-06-03T00:51:39.181Z,72.14
2018-06-03T00:54:07.610Z,72.70
2018-06-03T00:57:22.691Z,73.05
2018-06-03T00:59:51.136Z,73.46
2018-06-03T01:02:19.949Z,74.12
2018-06-03T01:04:49.830Z,74.13
2018-06-03T01:07:17.995Z,73.35
2018-06-03T01:09:46.321Z,73.54
2018-06-03T01:12:15.354Z,73.87
2018-06-03T01:14:43.879Z,73.99
2018-06-03T01:17:12.316Z,74.10
2018-06-03T01:19:40.538Z,74.33
2018-06-03T01:22:08.727Z,74.26
2018-06-03T01:24:37.050Z,74.33
2018-06-03T01:27:05.633Z,74.49
2018-06-03T01:29:34.097Z,74.95
2018-06-03T01:32:02.607Z,75.08
2018-06-03T01:34:30.959Z,75.01
2018-06-03T01:36:59.564Z,75.08
2018-06-03T01:39:28.246Z,74.47
2018-06-03T01:41:56.766Z,74.21
2018-06-03T01:44:24.970Z,74.57
2018-06-03T01:46:53.244Z,75.35
2018-06-03T01:49:21.450Z,75.45
2018-06-03T01:51:50.028Z,75.77
2018-06-03T01:54:18.235Z,75.69
2018-06-03T01:56:46.733Z,75.99
2018-06-03T01:59:15.212Z,75.67
2018-06-03T02:01:43.462Z,75.04
2018-06-03T02:04:12.747Z,75.41
2018-06-03T02:06:40.977Z,74.80
2018-06-03T02:09:10.044Z,75.22
2018-06-03T02:11:38.424Z,75.55
2018-06-03T02:14:06.682Z,75.49
2018-06-03T02:16:35.181Z,75.53
2018-06-03T02:19:03.789Z,76.03
2018-06-03T02:21:32.038Z,75.69
2018-06-03T02:24:00.310Z,75.53
2018-06-03T02:26:28.625Z,75.36
2018-06-03T02:28:56.943Z,75.33
2018-06-03T02:31:25.231Z,76.67
2018-06-03T02:33:53.507Z,76.96
2018-06-03T02:36:21.697Z,77.46
2018-06-03T02:38:50.276Z,77.00
2018-06-03T02:41:18.522Z,76.74
2018-06-03T02:43:47.522Z,76.58
2018-06-03T02:46:15.759Z,76.90
2018-06-03T02:48:44.044Z,77.21
2018-06-03T02:51:12.224Z,77.08
2018-06-03T02:53:40.441Z,77.43
2018-06-03T02:56:08.664Z,77.45
2018-06-03T02:58:38.916Z,77.79
2018-06-03T03:01:07.091Z,78.14
2018-06-03T03:03:35.295Z,77.75
2018-06-03T03:06:04.263Z,77.76
2018-06-03T03:08:32.829Z,77.77
2018-06-03T03:11:01.670Z,77.83
2018-06-03T03:13:30.124Z,77.71
2018-06-03T03:16:00.276Z,77.31
2018-06-03T03:18:28.507Z,77.00
2018-06-03T03:20:56.736Z,76.59
2018-06-03T03:23:25.274Z,77.12
2018-06-03T03:25:53.650Z,77.22
2018-06-03T03:28:21.855Z,77.47
2018-06-03T03:30:50.386Z,77.56
2018-06-03T03:33:18.904Z,77.78
2018-06-03T03:35:47.393Z,77.78
2018-06-03T03:38:15.535Z,77.29
2018-06-03T03:40:44.101Z,78.11
2018-06-03T03:43:15.829Z,78.33
2018-06-03T03:45:44.023Z,78.19
2018-06-03T03:48:12.095Z,78.09
2018-06-03T03:50:40.756Z,77.91
2018-06-03T03:53:09.057Z,77.78
2018-06-03T03:55:37.156Z,77.99
2018-06-03T03:58:05.607Z,78.15
2018-06-03T04:00:34.039Z,77.79
2018-06-03T04:03:02.589Z,77.77
2018-06-03T04:05:31.595Z,77.19
2018-06-03T04:08:00.676Z,77.03
2018-06-03T04:10:28.883Z,76.64
2018-06-03T04:12:57.118Z,76.79
2018-06-03T04:15:26.075Z,76.00
2018-06-03T04:17:54.577Z,74.68
2018-06-03T04:20:23.079Z,74.29
2018-06-03T04:22:52.074Z,73.81
2018-06-03T04:25:20.661Z,74.04
2018-06-03T04:27:49.161Z,74.11
2018-06-03T04:30:18.121Z,74.37
2018-06-03T04:32:46.308Z,73.68
2018-06-03T04:35:14.529Z,74.57
2018-06-03T04:37:42.866Z,74.20
2018-06-03T04:40:11.449Z,74.39
2018-06-03T04:42:39.959Z,74.23
2018-06-03T04:45:08.263Z,74.49
2018-06-03T04:47:36.881Z,73.93
2018-06-03T04:50:05.471Z,73.80
2018-06-03T04:52:33.839Z,73.19
2018-06-03T04:55:02.095Z,73.93
2018-06-03T04:57:30.293Z,73.88
2018-06-03T04:59:58.706Z,72.94
2018-06-03T05:02:26.950Z,72.12
2018-06-03T05:04:55.183Z,72.12
2018-06-03T05:07:23.402Z,72.42
2018-06-03T05:09:51.750Z,72.11
2018-06-03T05:12:20.625Z,71.46
2018-06-03T05:14:48.905Z,71.57
2018-06-03T05:17:17.350Z,70.73
2018-06-03T05:19:45.949Z,70.66
2018-06-03T05:22:14.296Z,69.82
2018-06-03T05:24:43.511Z,70.15
2018-06-03T05:27:11.814Z,70.59
2018-06-03T05:29:40.114Z,70.59
2018-06-03T05:32:08.425Z,69.76
2018-06-03T05:34:36.618Z,69.62
2018-06-03T05:37:05.141Z,69.56
2018-06-03T05:39:33.648Z,69.63
2018-06-03T05:42:01.836Z,69.24
2018-06-03T05:44:30.360Z,68.21
2018-06-03T05:46:58.541Z,67.39
2018-06-03T05:49:26.944Z,66.97
2018-06-03T05:51:55.290Z,68.21
2018-06-03T05:54:23.383Z,69.11
2018-06-03T05:56:51.598Z,68.09
2018-06-03T05:59:19.813Z,67.43
2018-06-03T06:01:48.628Z,67.31
2018-06-03T06:04:16.857Z,66.29
2018-06-03T06:06:45.070Z,65.98
2018-06-03T06:09:14.008Z,65.89
2018-06-03T06:11:42.500Z,65.23
2018-06-03T06:14:10.755Z,64.84
2018-06-03T06:16:38.939Z,65.19
2018-06-03T06:19:07.461Z,64.53
2018-06-03T06:21:36.214Z,64.09
2018-06-03T06:24:04.428Z,64.44
2018-06-03T06:26:33.374Z,64.49
2018-06-03T06:29:01.608Z,62.61
2018-06-03T06:31:29.949Z,62.32
2018-06-03T06:33:58.414Z,62.63
2018-06-03T06:36:26.952Z,62.96
2018-06-03T06:38:55.297Z,62.10
2018-06-03T06:41:23.475Z,62.17
2018-06-03T06:43:51.744Z,63.12
2018-06-03T06:46:20.060Z,61.93
2018-06-03T06:48:48.249Z,61.52
2018-06-03T06:51:16.578Z,60.89
2018-06-03T06:53:45.431Z,61.30
2018-06-03T06:56:14.236Z,61.72
2018-06-03T06:58:42.911Z,60.85
2018-06-03T07:01:11.474Z,60.09
2018-06-03T07:03:39.750Z,60.03
2018-06-03T07:06:07.971Z,60.11
2018-06-03T07:08:36.445Z,57.96
2018-06-03T07:11:05.193Z,59.05
2018-06-03T07:13:33.734Z,58.23
2018-06-03T07:16:01.933Z,59.07
2018-06-03T07:18:30.106Z,57.51
2018-06-03T07:20:58.366Z,56.87
2018-06-03T07:23:26.894Z,58.00
2018-06-03T07:25:55.092Z,56.90
2018-06-03T07:28:23.625Z,56.70
2018-06-03T07:30:51.844Z,56.23
2018-06-03T07:33:20.081Z,55.39
2018-06-03T07:35:48.303Z,54.04
2018-06-03T07:38:16.845Z,54.13
2018-06-03T07:40:46.155Z,54.89
2018-06-03T07:43:14.775Z,54.74
2018-06-03T07:45:43.112Z,54.17
2018-06-03T07:48:11.837Z,53.32
2018-06-03T07:50:40.598Z,51.57
2018-06-03T07:53:09.874Z,52.66
2018-06-03T07:55:38.653Z,53.20
2018-06-03T07:58:07.360Z,52.89
2018-06-03T08:00:35.542Z,52.29
2018-06-03T08:03:04.564Z,51.62
2018-06-03T08:05:33.325Z,50.61
2018-06-03T08:08:01.521Z,50.56
2018-06-03T08:10:30.348Z,50.10
2018-06-03T08:12:58.840Z,51.49
2018-06-03T08:15:27.169Z,50.86
2018-06-03T08:17:55.675Z,50.06
2018-06-03T08:20:24.833Z,50.00
2018-06-03T08:22:53.540Z,49.87
2018-06-03T08:25:21.756Z,48.86
2018-06-03T08:27:50.751Z,47.84
2018-06-03T08:30:18.985Z,47.10
2018-06-03T08:32:47.706Z,46.92
2018-06-03T08:35:16.471Z,46.72
2018-06-03T08:37:44.987Z,45.92
2018-06-03T08:40:14.234Z,46.07
2018-06-03T08:42:42.778Z,46.61
2018-06-03T08:45:11.813Z,46.06
2018-06-03T08:47:40.390Z,46.79
2018-06-03T08:50:09.042Z,46.24
2018-06-03T08:52:38.102Z,45.52
2018-06-03T08:55:06.613Z,45.38
2018-06-03T08:57:35.866Z,44.48
2018-06-03T09:00:04.834Z,44.17
2018-06-03T09:02:33.476Z,44.12
2018-06-03T09:05:02.405Z,43.40
2018-06-03T09:07:31.215Z,42.44
2018-06-03T09:09:59.991Z,43.41
2018-06-03T09:12:28.879Z,43.36
2018-06-03T09:14:57.343Z,44.59
2018-06-03T09:17:26.012Z,44.19
2018-06-03T09:19:54.592Z,44.67
2018-06-03T09:22:23.070Z,44.84
2018-06-03T09:24:51.700Z,43.09
2018-06-03T09:27:20.456Z,42.91
2018-06-03T09:29:49.184Z,43.23
2018-06-03T09:32:18.094Z,42.65
2018-06-03T09:34:46.987Z,42.22
2018-06-03T09:37:15.439Z,42.76
2018-06-03T09:39:44.013Z,42.51
2018-06-03T09:42:13.313Z,42.59
2018-06-03T09:44:42.373Z,43.77
2018-06-03T09:47:10.827Z,43.06
2018-06-03T09:49:39.154Z,42.38
2018-06-03T09:52:08.612Z,40.93
2018-06-03T09:54:37.391Z,40.34
2018-06-03T09:57:05.669Z,40.16
2018-06-03T09:59:34.802Z,41.14
2018-06-03T10:02:03.341Z,41.07
2018-06-03T10:04:31.687Z,41.23
2018-06-03T10:07:00.441Z,41.35
2018-06-03T10:09:29.130Z,41.70
2018-06-03T10:11:57.825Z,41.47
2018-06-03T10:14:26.665Z,40.32
2018-06-03T10:16:55.245Z,39.54
2018-06-03T10:19:23.808Z,38.52
2018-06-03T10:21:51.962Z,39.14
2018-06-03T10:24:20.998Z,39.23
2018-06-03T10:26:49.954Z,38.42
2018-06-03T10:29:18.549Z,37.29
2018-06-03T10:31:46.946Z,37.67
2018-06-03T10:34:15.732Z,37.05
2018-06-03T10:36:45.368Z,37.12
2018-06-03T10:39:14.289Z,36.27
2018-06-03T10:41:43.036Z,37.18
2018-06-03T10:44:12.090Z,36.73
2018-06-03T10:46:40.460Z,35.96
2018-06-03T10:49:09.407Z,35.55
2018-06-03T10:51:39.850Z,35.75
2018-06-03T10:54:08.974Z,35.18
2018-06-03T10:56:38.095Z,35.41
2018-06-03T10:59:06.509Z,34.20
2018-06-03T11:01:35.552Z,33.46
2018-06-03T11:04:03.809Z,33.58
2018-06-03T11:06:32.737Z,34.42
2018-06-03T11:09:01.342Z,34.37
2018-06-03T11:11:29.537Z,35.33
2018-06-03T11:13:58.003Z,35.57
2018-06-03T11:16:26.669Z,34.24
2018-06-03T11:18:55.209Z,35.54
2018-06-03T11:21:23.727Z,35.53
2018-06-03T11:23:52.877Z,34.56
2018-06-03T11:26:21.097Z,32.78
2018-06-03T11:28:50.095Z,32.96
2018-06-03T11:31:19.045Z,32.68
2018-06-03T11:33:48.261Z,33.23
2018-06-03T11:36:16.820Z,33.86
2018-06-03T11:38:46.215Z,35.28
2018-06-03T11:41:15.463Z,35.54
2018-06-03T11:43:44.521Z,34.07
2018-06-03T11:46:13.264Z,33.70
2018-06-03T11:48:42.030Z,33.77
2018-06-03T11:51:10.962Z,33.62
2018-06-03T11:53:39.343Z,33.72
2018-06-03T11:56:07.574Z,33.72
2018-06-03T11:58:55.041Z,33.81
2018-06-03T12:01:25.220Z,33.59
2018-06-03T12:03:53.629Z,33.39
2018-06-03T12:06:22.367Z,33.24
2018-06-03T12:08:51.020Z,33.94
2018-06-03T12:11:19.297Z,32.42
2018-06-03T12:13:48.085Z,32.80
2018-06-03T12:16:17.043Z,32.88
2018-06-03T12:18:45.661Z,32.78
2018-06-03T12:21:14.160Z,32.42
2018-06-03T12:23:42.830Z,32.71
2018-06-03T12:26:11.595Z,32.95
2018-06-03T12:28:40.635Z,33.19
2018-06-03T12:31:09.632Z,33.36
2018-06-03T12:33:38.334Z,34.24
2018-06-03T12:36:07.681Z,32.79
2018-06-03T12:38:36.539Z,31.56
2018-06-03T12:41:05.688Z,29.81
2018-06-03T12:43:34.388Z,29.34
2018-06-03T12:46:03.269Z,29.90
2018-06-03T12:48:31.922Z,30.19
2018-06-03T12:51:00.760Z,29.20
2018-06-03T12:53:29.398Z,29.12
2018-06-03T12:55:58.169Z,27.88
2018-06-03T12:58:26.815Z,28.25
2018-06-03T13:00:55.529Z,29.52
2018-06-03T13:03:24.210Z,29.13
2018-06-03T13:05:52.523Z,29.25
2018-06-03T13:08:21.684Z,29.14
2018-06-03T13:10:50.916Z,27.49
2018-06-03T13:13:20.087Z,27.11
2018-06-03T13:15:48.491Z,26.97
2018-06-03T13:18:17.206Z,26.10
2018-06-03T13:20:45.889Z,24.69
2018-06-03T13:23:15.336Z,26.12
2018-06-03T13:25:44.233Z,28.15
2018-06-03T13:28:13.137Z,27.72
2018-06-03T13:30:41.759Z,28.00
2018-06-03T13:33:09.986Z,26.27
2018-06-03T13:35:38.209Z,24.65
2018-06-03T13:38:06.523Z,23.23
2018-06-03T13:40:35.087Z,23.82
2018-06-03T13:43:03.373Z,23.61
2018-06-03T13:45:33.864Z,22.28
2018-06-03T13:48:02.711Z,20.89
2018-06-03T13:50:31.217Z,19.61
2018-06-03T13:53:00.501Z,18.99
2018-06-03T13:55:30.007Z,19.07
2018-06-03T13:57:58.568Z,18.23
2018-06-03T14:00:28.574Z,17.31
2018-06-03T14:02:57.428Z,16.44
2018-06-03T14:05:26.205Z,17.89
2018-06-03T14:07:55.781Z,19.99
2018-06-03T14:10:24.275Z,22.36
2018-06-03T14:12:52.703Z,24.14
2018-06-03T14:15:21.216Z,25.87
2018-06-03T14:17:49.670Z,26.86
2018-06-03T14:20:18.419Z,27.04
2018-06-03T14:22:46.976Z,26.60
2018-06-03T14:25:15.731Z,24.00
2018-06-03T14:27:44.237Z,22.28
2018-06-03T14:30:12.888Z,25.29
2018-06-03T14:32:41.818Z,25.54
2018-06-03T14:35:10.781Z,25.71
2018-06-03T14:37:39.333Z,23.87
2018-06-03T14:40:08.262Z,20.81
2018-06-03T14:42:37.029Z,21.07
2018-06-03T14:45:05.369Z,24.02
2018-06-03T14:47:34.252Z,20.96
2018-06-03T14:50:02.569Z,18.12
2018-06-03T14:52:31.243Z,18.05
2018-06-03T14:55:00.360Z,17.95
2018-06-03T14:57:29.033Z,17.26
2018-06-03T14:59:58.177Z,17.67
2018-06-03T15:02:26.926Z,17.72
2018-06-03T15:04:55.515Z,18.29
2018-06-03T15:07:23.986Z,18.00
2018-06-03T15:09:52.361Z,19.04
2018-06-03T15:12:21.083Z,19.68
2018-06-03T15:14:49.543Z,17.12
2018-06-03T15:17:18.193Z,16.37
2018-06-03T15:19:46.671Z,16.32
2018-06-03T15:22:14.848Z,18.15
2018-06-03T15:24:43.405Z,19.48
2018-06-03T15:27:12.221Z,21.16
2018-06-03T15:29:40.436Z,23.65
2018-06-03T15:32:08.974Z,24.39
2018-06-03T15:34:37.776Z,25.84
2018-06-03T15:37:07.388Z,25.13
2018-06-03T15:39:36.079Z,26.03
2018-06-03T15:42:04.503Z,27.70
2018-06-03T15:44:33.027Z,27.36
2018-06-03T15:47:01.854Z,27.00
2018-06-03T15:49:30.296Z,28.09
2018-06-03T15:51:58.823Z,27.50
2018-06-03T15:54:27.474Z,25.02
2018-06-03T15:56:56.228Z,20.18
2018-06-03T15:59:24.805Z,17.42
2018-06-03T16:01:53.006Z,17.29
2018-06-03T16:04:21.357Z,16.68
2018-06-03T16:06:49.808Z,17.12
2018-06-03T16:09:18.885Z,16.79
2018-06-03T16:11:48.179Z,17.35
2018-06-03T16:14:16.755Z,17.15
2018-06-03T16:16:45.080Z,16.89
2018-06-03T16:19:13.565Z,16.31
2018-06-03T16:21:42.754Z,16.07
2018-06-03T16:24:11.835Z,16.62
2018-06-03T16:26:39.984Z,15.95
2018-06-03T16:29:08.113Z,16.06
2018-06-03T16:31:36.581Z,16.80
2018-06-03T16:34:05.253Z,17.04
2018-06-03T16:36:34.191Z,16.85
2018-06-03T16:39:06.379Z,16.85
2018-06-03T16:41:36.772Z,16.65
2018-06-03T16:44:05.831Z,15.82
2018-06-03T16:46:36.266Z,16.13
2018-06-03T16:49:04.984Z,16.30
2018-06-03T16:51:33.628Z,16.16
2018-06-03T16:54:03.313Z,16.68
2018-06-03T16:56:31.981Z,16.59
2018-06-03T16:59:01.543Z,18.06
2018-06-03T17:01:30.674Z,16.77
2018-06-03T17:04:00.071Z,16.14
2018-06-03T17:06:28.582Z,16.20
2018-06-03T17:08:56.897Z,17.42
2018-06-03T17:11:26.085Z,17.98
2018-06-03T17:13:55.164Z,18.16
2018-06-03T17:16:23.630Z,18.29
2018-06-03T17:18:52.498Z,17.95
2018-06-03T17:21:21.507Z,18.69
2018-06-03T17:23:51.257Z,18.69
2018-06-03T17:26:19.795Z,18.65
2018-06-03T17:28:49.657Z,18.51
2018-06-03T17:31:20.130Z,21.55
2018-06-03T17:33:49.152Z,23.14
2018-06-03T17:36:17.384Z,25.01
2018-06-03T17:38:45.754Z,27.05
2018-06-03T17:41:14.463Z,28.94
2018-06-03T17:43:42.681Z,30.00
2018-06-03T17:46:10.886Z,30.61
2018-06-03T17:48:39.351Z,31.23
2018-06-03T17:51:07.861Z,31.82
2018-06-03T17:53:36.098Z,32.12
2018-06-03T17:56:04.282Z,32.38
2018-06-03T17:58:32.830Z,32.38
2018-06-03T18:01:01.081Z,31.89
2018-06-03T18:03:29.286Z,32.48
2018-06-03T18:05:57.565Z,33.12
2018-06-03T18:08:25.793Z,33.79
2018-06-03T18:10:54.524Z,33.87
2018-06-03T18:13:23.101Z,33.45
2018-06-03T18:15:51.765Z,33.90
2018-06-03T18:18:20.055Z,33.98
2018-06-03T18:20:48.300Z,33.99
2018-06-03T18:23:16.838Z,34.22
2018-06-03T18:25:45.367Z,34.55
2018-06-03T18:28:13.577Z,35.18
2018-06-03T18:30:41.819Z,34.92
2018-06-03T18:33:12.515Z,35.58
2018-06-03T18:35:40.722Z,35.56
2018-06-03T18:38:09.299Z,35.71
2018-06-03T18:40:37.510Z,35.95
2018-06-03T18:43:05.780Z,36.99
2018-06-03T18:45:34.345Z,37.01
2018-06-03T18:48:02.641Z,37.11
2018-06-03T18:50:38.000Z,37.32
2018-06-03T18:53:06.749Z,38.66
2018-06-03T18:55:35.359Z,38.48
2018-06-03T18:58:04.408Z,38.88
2018-06-03T19:00:33.251Z,39.13
2018-06-03T19:03:01.607Z,39.53
2018-06-03T19:05:29.930Z,40.97
2018-06-03T19:07:58.481Z,40.38
2018-06-03T19:10:27.230Z,40.64
2018-06-03T19:12:55.868Z,41.51
2018-06-03T19:15:24.325Z,41.85
2018-06-03T19:17:53.227Z,41.89
2018-06-03T19:20:21.623Z,41.81
2018-06-03T19:22:50.669Z,42.10
2018-06-03T19:25:19.934Z,42.56
2018-06-03T19:27:49.420Z,42.85
2018-06-03T19:30:17.951Z,43.14
2018-06-03T19:32:47.179Z,43.24
2018-06-03T19:35:16.041Z,43.59
2018-06-03T19:37:44.584Z,43.98
2018-06-03T19:40:12.817Z,43.71
2018-06-03T19:42:41.756Z,44.22
2018-06-03T19:45:10.050Z,44.24
2018-06-03T19:47:38.192Z,44.47
2018-06-03T19:50:06.640Z,44.66
2018-06-03T19:52:34.849Z,44.90
2018-06-03T19:55:03.815Z,45.22
2018-06-03T19:57:32.256Z,45.17
2018-06-03T20:00:03.655Z,45.17
2018-06-03T20:02:31.942Z,45.37
2018-06-03T20:05:00.730Z,45.77
2018-06-03T20:07:29.908Z,46.17
2018-06-03T20:10:01.107Z,46.49
2018-06-03T20:12:31.177Z,46.31
2018-06-03T20:15:00.362Z,46.47
2018-06-03T20:17:28.984Z,47.29
2018-06-03T20:19:57.443Z,46.90
2018-06-03T20:22:26.278Z,47.14
2018-06-03T20:24:56.042Z,47.61
2018-06-03T20:27:24.218Z,47.62
2018-06-03T20:29:53.520Z,48.31
2018-06-03T20:32:21.740Z,48.85
2018-06-03T20:34:49.991Z,48.62
2018-06-03T20:37:18.248Z,49.45
2018-06-03T20:39:47.442Z,49.99
2018-06-03T20:42:16.304Z,50.04
2018-06-03T20:44:45.003Z,50.03
2018-06-03T20:47:13.331Z,49.92
2018-06-03T20:49:41.714Z,50.76
2018-06-03T20:52:11.633Z,51.04
2018-06-03T20:54:40.069Z,50.92
2018-06-03T20:57:08.352Z,51.63
2018-06-03T20:59:36.761Z,52.46
2018-06-03T21:02:05.233Z,52.85
2018-06-03T21:04:34.001Z,53.18
2018-06-03T21:07:02.453Z,53.20
2018-06-03T21:09:30.966Z,53.06
2018-06-03T21:11:59.744Z,53.05
2018-06-03T21:14:28.330Z,53.03
2018-06-03T21:16:57.122Z,53.15
2018-06-03T21:19:25.900Z,53.76
2018-06-03T21:21:55.820Z,53.87
2018-06-03T21:24:24.267Z,53.80
2018-06-03T21:26:52.513Z,53.76
2018-06-03T21:29:20.751Z,53.96
2018-06-03T21:31:49.591Z,54.68
2018-06-03T21:34:17.782Z,54.63
2018-06-03T21:36:46.070Z,54.40
2018-06-03T21:39:14.327Z,54.16
2018-06-03T21:41:42.501Z,55.30
2018-06-03T21:44:11.129Z,55.61
2018-06-03T21:46:40.356Z,55.02
2018-06-03T21:49:08.720Z,55.64
2018-06-03T21:51:38.149Z,56.51
2018-06-03T21:54:06.477Z,56.84
2018-06-03T21:56:34.836Z,56.86
2018-06-03T21:59:05.406Z,57.26
2018-06-03T22:01:33.906Z,56.89
2018-06-03T22:04:02.551Z,57.11
2018-06-03T22:06:30.784Z,57.82
2018-06-03T22:08:59.084Z,57.86
2018-06-03T22:11:27.321Z,57.38
2018-06-03T22:13:56.385Z,58.78
2018-06-03T22:16:25.790Z,59.05
2018-06-03T22:18:54.162Z,59.38
2018-06-03T22:21:22.429Z,59.75
2018-06-03T22:23:50.974Z,60.15
2018-06-03T22:26:19.247Z,60.15
2018-06-03T22:28:48.510Z,60.70
2018-06-03T22:31:17.262Z,60.20
2018-06-03T22:33:45.611Z,59.36
2018-06-03T22:36:13.912Z,59.83
2018-06-03T22:38:42.162Z,60.13
2018-06-03T22:41:10.852Z,60.61
2018-06-03T22:43:39.621Z,60.77
2018-06-03T22:46:08.220Z,61.01
2018-06-03T22:48:36.419Z,61.47
2018-06-03T22:51:04.978Z,61.63
2018-06-03T22:53:33.185Z,61.43
2018-06-03T22:56:01.781Z,62.19
2018-06-03T22:58:30.405Z,61.92
2018-06-03T23:00:58.633Z,63.02
2018-06-03T23:03:27.281Z,63.36
2018-06-03T23:05:55.582Z,62.76
2018-06-03T23:08:23.869Z,62.99
2018-06-03T23:10:52.186Z,62.76
2018-06-03T23:13:20.441Z,62.45
2018-06-03T23:15:49.158Z,62.89
2018-06-03T23:18:17.487Z,62.47
2018-06-03T23:20:46.648Z,63.56
2018-06-03T23:23:14.898Z,63.39
2018-06-03T23:25:43.304Z,63.61
2018-06-03T23:28:11.523Z,63.38
2018-06-03T23:30:39.755Z,64.06
2018-06-03T23:33:08.050Z,64.25
2018-06-03T23:35:36.641Z,64.78
2018-06-03T23:38:04.818Z,64.46
2018-06-03T23:40:33.389Z,64.07
2018-06-03T23:43:01.654Z,63.99
2018-06-03T23:45:29.846Z,64.33
2018-06-03T23:47:58.370Z,64.56
2018-06-03T23:50:26.650Z,64.40
2018-06-03T23:52:54.924Z,64.33
2018-06-03T23:55:23.415Z,64.75
2018-06-03T23:57:52.255Z,65.49
